Time;durP1;ratioP1;P1;durP2;ratioP2;P2;SDS_P1;SDS_P2;PMS_P1;PMS_P2;Temp;Humidity;BMP_temperature;BMP_pressure;BME280_temperature;BME280_humidity;BME280_pressure;Samples;Min_cycle;Max_cycle;Signal;HPM_P1;HPM_P2
2022/02/28 00:02:02;;;;;;;14.73;8.60;;;2.00;99.90;;;;;;5091727;28;20217;-51
2022/02/28 00:04:30;;;;;;;16.27;8.63;;;2.00;99.90;;;;;;5092718;28;20276;-55
2022/02/28 00:06:56;;;;;;;18.37;9.80;;;2.00;99.90;;;;;;5098227;28;20197;-52
2022/02/28 00:09:26;;;;;;;17.77;9.60;;;2.00;99.90;;;;;;5090842;28;20221;-54
2022/02/28 00:11:53;;;;;;;15.50;9.07;;;2.00;99.90;;;;;;5094312;28;20239;-51
2022/02/28 00:14:19;;;;;;;17.80;8.77;;;1.90;99.90;;;;;;5089156;28;20239;-54
2022/02/28 00:16:46;;;;;;;16.77;8.93;;;1.90;99.90;;;;;;5093633;28;20900;-50
2022/02/28 00:19:13;;;;;;;20.30;9.77;;;1.90;99.90;;;;;;5102573;28;20313;-49
2022/02/28 00:21:41;;;;;;;15.80;9.80;;;1.90;99.90;;;;;;5091981;28;20355;-48
2022/02/28 00:24:08;;;;;;;15.87;9.30;;;1.80;99.90;;;;;;5084236;28;20213;-53
2022/02/28 00:26:35;;;;;;;16.40;9.17;;;1.80;99.90;;;;;;5099464;28;20197;-54
2022/02/28 00:29:02;;;;;;;15.73;8.93;;;1.80;99.90;;;;;;5086735;28;20240;-49
2022/02/28 00:31:29;;;;;;;15.03;9.47;;;1.80;99.90;;;;;;5101322;28;20303;-52
2022/02/28 00:33:56;;;;;;;14.27;8.80;;;1.80;99.90;;;;;;5096219;28;20293;-50
2022/02/28 00:36:26;;;;;;;11.37;7.83;;;1.80;99.90;;;;;;5092281;28;20205;-55
2022/02/28 00:38:54;;;;;;;13.60;8.97;;;1.70;99.90;;;;;;5095362;28;20196;-48
2022/02/28 00:41:21;;;;;;;16.80;8.83;;;1.70;99.90;;;;;;5092064;28;20233;-53
2022/02/28 00:43:48;;;;;;;12.97;8.93;;;1.70;99.90;;;;;;5083127;28;20216;-50
2022/02/28 00:46:15;;;;;;;14.37;8.93;;;1.60;99.90;;;;;;5099820;28;20201;-51
2022/02/28 00:48:42;;;;;;;18.77;8.90;;;1.60;99.90;;;;;;5097139;28;20209;-53
2022/02/28 00:51:09;;;;;;;15.43;9.30;;;1.60;99.90;;;;;;5094724;28;20240;-53
2022/02/28 00:53:36;;;;;;;17.37;8.67;;;1.60;99.90;;;;;;5096037;28;20194;-54
2022/02/28 00:56:05;;;;;;;16.00;9.23;;;1.50;99.90;;;;;;5087932;28;20720;-54
2022/02/28 00:58:33;;;;;;;16.00;8.70;;;1.50;99.90;;;;;;5086100;28;20272;-55
2022/02/28 01:00:59;;;;;;;18.50;9.37;;;1.50;99.90;;;;;;5099178;28;20232;-51
2022/02/28 01:03:26;;;;;;;17.13;9.27;;;1.50;99.90;;;;;;5098911;28;20224;-55
2022/02/28 01:05:53;;;;;;;13.00;8.23;;;1.40;99.90;;;;;;5089430;28;20192;-53
2022/02/28 01:08:21;;;;;;;13.83;8.47;;;1.40;99.90;;;;;;5097568;28;20249;-51
2022/02/28 01:10:48;;;;;;;19.47;9.20;;;1.40;99.90;;;;;;5099052;28;20280;-51
2022/02/28 01:13:17;;;;;;;15.67;9.27;;;1.30;99.90;;;;;;5097077;28;20212;-52
2022/02/28 01:15:44;;;;;;;13.50;8.90;;;1.30;99.90;;;;;;5082149;28;20189;-50
2022/02/28 01:18:12;;;;;;;14.40;8.90;;;1.30;99.90;;;;;;5093886;28;20214;-48
2022/02/28 01:20:39;;;;;;;16.03;8.47;;;1.30;99.90;;;;;;5090979;28;20216;-49
2022/02/28 01:23:06;;;;;;;19.50;10.87;;;1.30;99.90;;;;;;5095834;28;20196;-50
2022/02/28 01:25:33;;;;;;;11.87;8.23;;;1.20;99.90;;;;;;5093438;28;20211;-52
2022/02/28 01:28:00;;;;;;;13.93;9.33;;;1.20;99.90;;;;;;5089835;28;20200;-52
2022/02/28 01:30:28;;;;;;;14.57;8.67;;;1.20;99.90;;;;;;5087195;28;20239;-54
2022/02/28 01:32:55;;;;;;;16.37;8.80;;;1.20;99.90;;;;;;5091909;28;20261;-48
2022/02/28 01:35:22;;;;;;;15.13;8.63;;;1.20;99.90;;;;;;5088571;28;20563;-52
2022/02/28 01:37:49;;;;;;;16.80;9.17;;;1.20;99.90;;;;;;5089223;28;20210;-50
2022/02/28 01:40:16;;;;;;;15.23;9.30;;;1.10;99.90;;;;;;5098748;28;20225;-50
2022/02/28 01:42:44;;;;;;;14.97;8.80;;;1.10;99.90;;;;;;5091197;28;20973;-51
2022/02/28 01:45:12;;;;;;;14.53;9.10;;;1.00;99.90;;;;;;5075732;28;20603;-53
2022/02/28 01:47:41;;;;;;;15.67;8.87;;;1.00;99.90;;;;;;5097895;28;20931;-51
2022/02/28 01:50:10;;;;;;;12.93;8.47;;;1.00;99.90;;;;;;5088598;28;20226;-53
2022/02/28 01:52:37;;;;;;;12.37;8.37;;;1.00;99.90;;;;;;5078732;28;20312;-51
2022/02/28 01:55:05;;;;;;;13.70;8.57;;;1.00;99.90;;;;;;5100946;28;20206;-50
2022/02/28 01:57:32;;;;;;;16.37;9.50;;;0.90;99.90;;;;;;5091094;28;20569;-55
2022/02/28 01:59:59;;;;;;;19.50;9.00;;;0.90;99.90;;;;;;5083178;28;20232;-51
2022/02/28 02:02:26;;;;;;;16.00;9.50;;;0.90;99.90;;;;;;5083979;28;20681;-54
2022/02/28 02:04:54;;;;;;;15.33;9.00;;;0.90;99.90;;;;;;5092996;28;20213;-50
2022/02/28 02:07:21;;;;;;;15.73;9.13;;;0.80;99.90;;;;;;5098163;28;20193;-52
2022/02/28 02:09:48;;;;;;;12.47;8.97;;;0.80;99.90;;;;;;5091338;28;20212;-50
2022/02/28 02:12:15;;;;;;;17.13;9.13;;;0.80;99.90;;;;;;5098958;28;20672;-51
2022/02/28 02:14:43;;;;;;;12.33;8.30;;;0.80;99.90;;;;;;5090583;28;20792;-48
2022/02/28 02:17:10;;;;;;;15.90;8.60;;;0.80;99.90;;;;;;5088587;28;20572;-52
2022/02/28 02:19:38;;;;;;;12.10;8.37;;;0.80;99.90;;;;;;5096362;28;20196;-54
2022/02/28 02:22:06;;;;;;;19.03;10.10;;;0.80;99.90;;;;;;5088364;28;20224;-49
2022/02/28 02:24:33;;;;;;;16.83;8.53;;;0.80;99.90;;;;;;5088576;28;20207;-53
2022/02/28 02:27:00;;;;;;;14.87;9.10;;;0.70;99.90;;;;;;5099441;28;20203;-49
2022/02/28 02:29:27;;;;;;;14.33;9.03;;;0.70;99.90;;;;;;5087437;28;20224;-53
2022/02/28 02:31:54;;;;;;;15.77;8.87;;;0.70;99.90;;;;;;5086731;28;20223;-52
2022/02/28 02:34:20;;;;;;;14.53;8.87;;;0.70;99.90;;;;;;5089597;28;20304;-54
2022/02/28 02:36:48;;;;;;;15.53;9.87;;;0.70;99.90;;;;;;5092827;28;20262;-51
2022/02/28 02:39:16;;;;;;;12.87;8.97;;;0.70;99.90;;;;;;5088824;28;20239;-52
2022/02/28 02:41:43;;;;;;;14.13;9.10;;;0.60;99.90;;;;;;5088989;28;20830;-52
2022/02/28 02:44:10;;;;;;;15.73;9.47;;;0.60;99.90;;;;;;5088896;28;20681;-53
2022/02/28 02:46:46;;;;;;;15.83;8.77;;;0.60;99.90;;;;;;5094812;28;20198;-53
2022/02/28 02:49:22;;;;;;;15.77;8.57;;;0.60;99.90;;;;;;5079383;28;20230;-54
2022/02/28 02:51:50;;;;;;;16.37;9.40;;;0.60;99.90;;;;;;5094301;28;20208;-48
2022/02/28 02:54:21;;;;;;;15.07;9.33;;;0.60;99.90;;;;;;5093350;28;20230;-54
2022/02/28 02:56:48;;;;;;;17.33;9.87;;;0.50;99.90;;;;;;5081749;28;20977;-49
2022/02/28 02:59:15;;;;;;;16.23;8.83;;;0.50;99.90;;;;;;5101708;28;20196;-50
2022/02/28 03:01:41;;;;;;;15.23;9.87;;;0.50;99.90;;;;;;5091758;28;20214;-48
2022/02/28 03:04:08;;;;;;;16.03;8.63;;;0.50;99.90;;;;;;5085490;28;20357;-49
2022/02/28 03:06:35;;;;;;;15.93;9.07;;;0.50;99.90;;;;;;5091612;28;20296;-53
2022/02/28 03:09:03;;;;;;;16.37;9.60;;;0.50;99.90;;;;;;5092997;28;20224;-53
2022/02/28 03:11:33;;;;;;;15.23;9.40;;;0.50;99.90;;;;;;5102126;28;20316;-53
2022/02/28 03:14:00;;;;;;;14.37;8.43;;;0.40;99.90;;;;;;5090322;28;20284;-48
2022/02/28 03:16:27;;;;;;;16.43;9.10;;;0.50;99.90;;;;;;5093711;28;20648;-55
2022/02/28 03:18:54;;;;;;;20.90;10.43;;;0.40;99.90;;;;;;5088081;27;20333;-49
2022/02/28 03:21:21;;;;;;;16.10;9.47;;;0.40;99.90;;;;;;5099997;28;20210;-53
2022/02/28 03:23:48;;;;;;;18.67;10.30;;;0.40;99.90;;;;;;5091105;28;23009;-49
2022/02/28 03:26:16;;;;;;;15.17;9.13;;;0.40;99.90;;;;;;5099378;28;20252;-50
2022/02/28 03:28:44;;;;;;;17.00;9.90;;;0.40;99.90;;;;;;5098915;28;20944;-48
2022/02/28 03:31:11;;;;;;;17.37;10.13;;;0.40;99.90;;;;;;5097254;28;20249;-48
2022/02/28 03:33:38;;;;;;;15.13;10.13;;;0.40;99.90;;;;;;5075456;28;20294;-50
2022/02/28 03:36:06;;;;;;;18.03;10.47;;;0.40;99.90;;;;;;5103733;28;20229;-54
2022/02/28 03:38:36;;;;;;;17.20;9.10;;;0.30;99.90;;;;;;5099656;28;20204;-53
2022/02/28 03:41:03;;;;;;;17.07;10.13;;;0.30;99.90;;;;;;5092307;28;20320;-52
2022/02/28 03:43:33;;;;;;;13.83;8.83;;;0.30;99.90;;;;;;5092678;28;20294;-53
2022/02/28 03:46:08;;;;;;;19.20;10.17;;;0.30;99.90;;;;;;5102988;28;20199;-53
2022/02/28 03:49:07;;;;;;;17.20;9.93;;;0.30;99.90;;;;;;5086313;28;20208;-51
2022/02/28 03:51:45;;;;;;;17.30;9.83;;;0.30;99.90;;;;;;5088372;28;20211;-52
2022/02/28 03:54:23;;;;;;;14.93;9.23;;;0.30;99.90;;;;;;5098922;28;20688;-55
2022/02/28 03:56:50;;;;;;;17.90;9.63;;;0.30;99.90;;;;;;5094177;28;20195;-54
2022/02/28 03:59:17;;;;;;;14.93;9.93;;;0.30;99.90;;;;;;5103113;28;20203;-51
2022/02/28 04:01:45;;;;;;;18.23;10.07;;;0.30;99.90;;;;;;5085202;28;21041;-55
2022/02/28 04:04:24;;;;;;;18.20;10.60;;;0.30;99.90;;;;;;5094013;28;20918;-54
2022/02/28 04:06:50;;;;;;;15.33;9.30;;;0.30;99.90;;;;;;5081613;28;20287;-50
2022/02/28 04:09:18;;;;;;;16.67;9.83;;;0.30;99.90;;;;;;5099437;28;20200;-50
2022/02/28 04:11:45;;;;;;;17.77;10.70;;;0.30;99.90;;;;;;5080963;28;20299;-52
2022/02/28 04:14:12;;;;;;;17.87;10.23;;;0.30;99.90;;;;;;5102487;28;20279;-54
2022/02/28 04:16:38;;;;;;;22.10;11.03;;;0.30;99.90;;;;;;5098631;28;20199;-53
2022/02/28 04:19:36;;;;;;;17.33;9.93;;;0.30;99.90;;;;;;5059514;28;20213;-49
2022/02/28 04:22:04;;;;;;;17.63;10.07;;;0.30;99.90;;;;;;5085247;28;20315;-52
2022/02/28 04:24:32;;;;;;;16.30;10.33;;;0.20;99.90;;;;;;5097281;28;20204;-55
2022/02/28 04:26:59;;;;;;;14.63;9.57;;;0.20;99.90;;;;;;5086471;28;20291;-49
2022/02/28 04:29:27;;;;;;;19.77;10.90;;;0.20;99.90;;;;;;5091103;28;20204;-53
2022/02/28 04:32:03;;;;;;;20.97;10.80;;;0.20;99.90;;;;;;5097709;28;20232;-53
2022/02/28 04:34:36;;;;;;;16.90;10.53;;;0.10;99.90;;;;;;5100214;28;20291;-55
2022/02/28 04:37:03;;;;;;;18.73;10.20;;;0.20;99.90;;;;;;5085985;28;20213;-51
2022/02/28 04:39:31;;;;;;;15.57;10.17;;;0.10;99.90;;;;;;5095901;28;20224;-53
2022/02/28 04:41:58;;;;;;;18.83;11.03;;;0.10;99.90;;;;;;5092852;28;20232;-48
2022/02/28 04:44:25;;;;;;;19.40;10.37;;;0.10;99.90;;;;;;5092916;28;20522;-53
2022/02/28 04:46:52;;;;;;;17.50;11.23;;;0.10;99.90;;;;;;5092494;28;20412;-50
2022/02/28 04:49:53;;;;;;;18.47;10.67;;;0.10;99.90;;;;;;5063619;28;20222;-50
2022/02/28 04:52:20;;;;;;;20.03;10.83;;;0.10;99.90;;;;;;5092212;28;20203;-53
2022/02/28 04:54:47;;;;;;;18.30;10.37;;;0.10;99.90;;;;;;5087746;28;20185;-50
2022/02/28 04:57:14;;;;;;;16.03;10.33;;;0.10;99.90;;;;;;5089095;28;20655;-51
2022/02/28 04:59:43;;;;;;;19.00;10.90;;;0.10;99.90;;;;;;5093189;28;20199;-53
2022/02/28 05:02:10;;;;;;;17.17;10.23;;;0.10;99.90;;;;;;5101736;28;20204;-53
2022/02/28 05:04:56;;;;;;;19.20;10.90;;;0.00;99.90;;;;;;5085851;28;20302;-47
2022/02/28 05:07:23;;;;;;;19.27;10.10;;;0.00;99.90;;;;;;5098052;28;20200;-51
2022/02/28 05:09:51;;;;;;;21.17;11.07;;;0.00;99.90;;;;;;5084437;28;20191;-50
2022/02/28 05:12:18;;;;;;;19.60;10.73;;;0.00;99.90;;;;;;5095105;28;20202;-52
2022/02/28 05:14:46;;;;;;;20.20;11.53;;;0.00;99.90;;;;;;5082335;28;21023;-49
2022/02/28 05:17:13;;;;;;;18.90;11.33;;;0.00;99.90;;;;;;5101497;28;20280;-47
2022/02/28 05:19:42;;;;;;;17.87;10.73;;;0.00;99.90;;;;;;5084153;28;20829;-49
2022/02/28 05:22:11;;;;;;;20.17;11.63;;;0.00;99.90;;;;;;5079593;28;20198;-54
2022/02/28 05:24:45;;;;;;;21.53;12.53;;;-0.10;99.90;;;;;;5079379;28;20219;-53
2022/02/28 05:27:12;;;;;;;18.40;10.93;;;-0.10;99.90;;;;;;5088315;28;22963;-52
2022/02/28 05:29:40;;;;;;;19.63;11.47;;;-0.10;99.90;;;;;;5090521;28;20202;-50
2022/02/28 05:32:09;;;;;;;24.57;11.93;;;-0.10;99.90;;;;;;5090936;28;20198;-47
2022/02/28 05:34:54;;;;;;;19.20;11.03;;;-0.10;99.90;;;;;;5091922;28;20680;-53
2022/02/28 05:37:34;;;;;;;18.97;10.83;;;-0.10;99.90;;;;;;5094866;28;20214;-50
2022/02/28 05:40:03;;;;;;;19.97;11.73;;;-0.10;99.90;;;;;;5071631;28;21050;-52
2022/02/28 05:42:35;;;;;;;18.53;10.37;;;-0.20;99.90;;;;;;5086913;28;20207;-49
2022/02/28 05:45:04;;;;;;;22.53;12.00;;;-0.10;99.90;;;;;;5082018;28;20902;-51
2022/02/28 05:47:31;;;;;;;19.83;11.97;;;-0.20;99.90;;;;;;5082802;28;20202;-47
2022/02/28 05:49:59;;;;;;;22.27;12.27;;;-0.20;99.90;;;;;;5098351;28;20591;-53
2022/02/28 05:52:25;;;;;;;20.00;11.70;;;-0.20;99.90;;;;;;5086417;28;20208;-50
2022/02/28 05:54:53;;;;;;;20.37;11.23;;;-0.20;99.90;;;;;;5087485;28;20199;-48
2022/02/28 05:57:20;;;;;;;20.53;10.93;;;-0.20;99.90;;;;;;5078522;28;20297;-52
2022/02/28 05:59:47;;;;;;;23.00;11.97;;;-0.20;99.90;;;;;;5098252;28;20198;-50
2022/02/28 06:02:14;;;;;;;21.67;12.30;;;-0.20;99.90;;;;;;5093207;28;20191;-53
2022/02/28 06:04:40;;;;;;;21.10;11.47;;;-0.20;99.90;;;;;;5095164;28;20928;-49
2022/02/28 06:07:07;;;;;;;20.20;12.03;;;-0.20;99.90;;;;;;5082892;28;20557;-50
2022/02/28 06:09:34;;;;;;;21.67;12.50;;;-0.20;99.90;;;;;;5083052;28;20207;-50
2022/02/28 06:12:02;;;;;;;22.73;12.80;;;-0.20;99.90;;;;;;5090951;28;20313;-53
2022/02/28 06:14:29;;;;;;;23.27;12.30;;;-0.20;99.90;;;;;;5083085;28;20332;-49
2022/02/28 06:16:55;;;;;;;21.77;12.07;;;-0.20;99.90;;;;;;5100921;28;20232;-51
2022/02/28 06:19:22;;;;;;;23.57;13.00;;;-0.20;99.90;;;;;;5097606;28;20274;-53
2022/02/28 06:21:49;;;;;;;25.13;13.70;;;-0.20;99.90;;;;;;5097947;28;20220;-49
2022/02/28 06:24:16;;;;;;;26.60;12.57;;;-0.20;99.90;;;;;;5090308;28;21010;-52
2022/02/28 06:26:43;;;;;;;24.33;12.97;;;-0.20;99.90;;;;;;5079365;28;20206;-47
2022/02/28 06:29:11;;;;;;;21.03;12.53;;;-0.20;99.90;;;;;;5093345;28;20208;-51
2022/02/28 06:31:43;;;;;;;23.63;13.23;;;-0.20;99.90;;;;;;5098725;28;20733;-51
2022/02/28 06:34:10;;;;;;;25.27;14.07;;;-0.20;99.90;;;;;;5093306;28;20199;-54
2022/02/28 06:36:36;;;;;;;23.13;13.50;;;-0.20;99.90;;;;;;5099483;27;20183;-50
2022/02/28 06:39:03;;;;;;;27.13;13.80;;;-0.10;99.90;;;;;;5104734;28;20723;-53
2022/02/28 06:41:30;;;;;;;22.53;12.60;;;-0.10;99.90;;;;;;5082786;28;22166;-50
2022/02/28 06:43:57;;;;;;;24.30;13.87;;;-0.10;99.90;;;;;;5096180;28;20563;-48
2022/02/28 06:46:26;;;;;;;26.87;14.20;;;-0.10;99.90;;;;;;5087734;28;20191;-48
2022/02/28 06:48:53;;;;;;;24.00;13.53;;;-0.10;99.90;;;;;;5092235;28;20591;-51
2022/02/28 06:51:20;;;;;;;25.90;13.67;;;0.00;99.90;;;;;;5091808;28;20228;-51
2022/02/28 06:53:49;;;;;;;29.67;14.50;;;0.00;99.90;;;;;;5093395;28;20692;-51
2022/02/28 06:56:15;;;;;;;29.13;14.63;;;0.00;99.90;;;;;;5091945;28;20210;-53
2022/02/28 06:58:42;;;;;;;26.10;13.60;;;0.00;99.90;;;;;;5082086;28;20678;-53
2022/02/28 07:01:11;;;;;;;23.73;13.87;;;0.00;99.90;;;;;;5089596;28;20222;-54
2022/02/28 07:03:44;;;;;;;25.70;15.00;;;0.10;99.90;;;;;;5095725;28;20211;-53
2022/02/28 07:06:12;;;;;;;26.50;13.30;;;0.10;99.90;;;;;;5102083;28;20205;-49
2022/02/28 07:08:39;;;;;;;27.90;13.97;;;0.20;99.90;;;;;;5105884;27;20198;-54
2022/02/28 07:11:07;;;;;;;23.97;14.30;;;0.20;99.90;;;;;;5087128;28;20285;-51
2022/02/28 07:13:56;;;;;;;26.13;14.90;;;0.20;99.90;;;;;;5088782;28;20270;-53
2022/02/28 07:16:24;;;;;;;28.20;14.67;;;0.20;99.90;;;;;;5085744;28;20519;-50
2022/02/28 07:18:52;;;;;;;26.63;14.87;;;0.30;99.90;;;;;;5104127;28;20204;-49
2022/02/28 07:21:19;;;;;;;26.23;15.03;;;0.30;99.90;;;;;;5099328;28;21013;-54
2022/02/28 07:23:46;;;;;;;23.73;13.33;;;0.40;99.90;;;;;;5099258;28;20229;-54
2022/02/28 07:26:13;;;;;;;24.97;14.90;;;0.40;99.90;;;;;;5093338;28;20204;-51
2022/02/28 07:28:40;;;;;;;25.67;14.70;;;0.40;99.90;;;;;;5082529;28;20291;-53
2022/02/28 07:31:07;;;;;;;24.57;14.70;;;0.40;99.90;;;;;;5089638;28;20322;-53
2022/02/28 07:33:34;;;;;;;24.23;15.03;;;0.50;99.90;;;;;;5095464;28;20893;-52
2022/02/28 07:36:02;;;;;;;29.83;15.63;;;0.60;99.90;;;;;;5097604;28;20761;-52
2022/02/28 07:38:29;;;;;;;25.17;14.43;;;0.60;99.90;;;;;;5093525;28;20203;-50
2022/02/28 07:40:57;;;;;;;28.83;15.77;;;0.60;99.90;;;;;;5098140;28;20210;-54
2022/02/28 07:43:24;;;;;;;27.97;15.90;;;0.70;99.90;;;;;;5082484;28;20211;-51
2022/02/28 07:45:50;;;;;;;30.07;15.37;;;0.70;99.90;;;;;;5095314;28;20202;-51
2022/02/28 07:48:17;;;;;;;27.73;15.17;;;0.80;99.90;;;;;;5091898;27;20197;-50
2022/02/28 07:50:44;;;;;;;27.40;14.70;;;0.90;99.90;;;;;;5103510;28;20298;-51
2022/02/28 07:53:12;;;;;;;23.03;14.40;;;0.90;99.90;;;;;;5102913;28;20220;-53
2022/02/28 07:55:38;;;;;;;25.73;14.67;;;1.00;99.90;;;;;;5105150;28;20232;-52
2022/02/28 07:58:05;;;;;;;25.93;14.47;;;1.10;99.90;;;;;;5084382;28;20202;-54
2022/02/28 08:00:32;;;;;;;31.23;15.80;;;1.10;99.90;;;;;;5085060;28;21059;-50
2022/02/28 08:02:59;;;;;;;27.57;14.73;;;1.20;99.90;;;;;;5095748;28;20211;-49
2022/02/28 08:05:26;;;;;;;23.60;15.20;;;1.30;99.90;;;;;;5087087;28;20291;-51
2022/02/28 08:07:53;;;;;;;24.50;15.90;;;1.40;99.90;;;;;;5101561;28;20224;-51
2022/02/28 08:10:21;;;;;;;31.07;15.57;;;1.40;99.90;;;;;;5094279;28;20868;-50
2022/02/28 08:12:49;;;;;;;28.13;15.33;;;1.50;99.90;;;;;;5087417;28;20221;-50
2022/02/28 08:15:16;;;;;;;26.27;15.87;;;1.60;99.90;;;;;;5086947;28;20318;-51
2022/02/28 08:17:43;;;;;;;24.80;14.40;;;1.60;99.90;;;;;;5094128;28;20883;-47
2022/02/28 08:20:10;;;;;;;25.57;15.27;;;1.70;99.90;;;;;;5092183;28;20233;-54
2022/02/28 08:22:37;;;;;;;24.67;14.20;;;1.80;99.90;;;;;;5090463;28;20197;-52
2022/02/28 08:25:05;;;;;;;21.50;13.80;;;1.90;99.90;;;;;;5098144;28;20200;-52
2022/02/28 08:27:33;;;;;;;23.73;12.97;;;1.90;99.90;;;;;;5102007;28;20275;-50
2022/02/28 08:30:00;;;;;;;24.67;13.53;;;2.00;99.90;;;;;;5090952;28;21105;-53
2022/02/28 08:32:27;;;;;;;24.47;15.23;;;2.00;99.90;;;;;;5092724;28;20376;-50
2022/02/28 08:34:53;;;;;;;26.63;14.80;;;2.10;99.90;;;;;;5091318;28;20216;-50
2022/02/28 08:37:20;;;;;;;26.77;15.07;;;2.20;99.90;;;;;;5097391;28;20208;-50
2022/02/28 08:39:47;;;;;;;24.10;14.40;;;2.30;99.90;;;;;;5105255;28;20238;-51
2022/02/28 08:42:13;;;;;;;24.37;14.83;;;2.30;99.90;;;;;;5099236;28;20204;-53
2022/02/28 08:44:43;;;;;;;24.60;15.03;;;2.30;99.90;;;;;;5082920;28;20221;-51
2022/02/28 08:47:10;;;;;;;28.53;14.13;;;2.40;99.90;;;;;;5095515;28;20196;-54
2022/02/28 08:49:36;;;;;;;31.00;15.80;;;2.40;99.90;;;;;;5087790;28;20690;-54
2022/02/28 08:52:04;;;;;;;24.37;14.30;;;2.50;99.90;;;;;;5086183;28;20237;-51
2022/02/28 08:54:31;;;;;;;25.80;13.63;;;2.60;99.90;;;;;;5099570;28;20382;-52
2022/02/28 08:57:00;;;;;;;25.70;14.47;;;2.70;99.90;;;;;;5104216;28;20204;-50
2022/02/28 08:59:27;;;;;;;26.33;15.20;;;2.80;99.90;;;;;;5101270;28;20280;-51
2022/02/28 09:01:55;;;;;;;23.20;12.80;;;3.00;99.90;;;;;;5090627;28;20224;-47
2022/02/28 09:04:21;;;;;;;26.07;15.53;;;3.10;99.90;;;;;;5091666;28;20204;-47
2022/02/28 09:06:49;;;;;;;25.27;14.67;;;3.20;99.90;;;;;;5093439;28;20201;-49
2022/02/28 09:09:16;;;;;;;24.83;14.57;;;3.20;99.90;;;;;;5100683;28;20192;-47
2022/02/28 09:11:42;;;;;;;25.93;15.53;;;3.30;99.90;;;;;;5104303;28;20304;-49
2022/02/28 09:14:09;;;;;;;24.80;13.57;;;3.40;99.90;;;;;;5101809;28;20273;-53
2022/02/28 09:16:35;;;;;;;23.40;14.03;;;3.40;99.90;;;;;;5088651;28;20212;-47
2022/02/28 09:19:04;;;;;;;23.80;14.30;;;3.40;99.90;;;;;;5101704;28;20205;-50
2022/02/28 09:21:30;;;;;;;27.07;14.07;;;3.50;99.90;;;;;;5079236;28;20829;-51
2022/02/28 09:23:58;;;;;;;23.10;13.77;;;3.60;99.90;;;;;;5102940;28;20259;-47
2022/02/28 09:26:25;;;;;;;27.00;15.20;;;3.70;99.90;;;;;;5102817;28;20201;-51
2022/02/28 09:28:52;;;;;;;25.50;13.93;;;3.70;99.90;;;;;;5101597;28;20185;-49
2022/02/28 09:31:18;;;;;;;20.50;12.80;;;3.80;99.90;;;;;;5104297;28;20235;-49
2022/02/28 09:33:45;;;;;;;21.97;12.03;;;3.90;99.90;;;;;;5087882;27;20197;-51
2022/02/28 09:36:13;;;;;;;25.10;14.23;;;3.90;99.90;;;;;;5088427;28;20682;-50
2022/02/28 09:38:40;;;;;;;25.67;14.40;;;3.90;99.90;;;;;;5099679;28;20194;-50
2022/02/28 09:41:07;;;;;;;25.77;14.27;;;4.00;99.90;;;;;;5102692;28;20757;-50
2022/02/28 09:43:44;;;;;;;22.77;13.97;;;4.10;99.90;;;;;;5099791;28;20242;-48
2022/02/28 09:46:30;;;;;;;26.03;15.47;;;4.20;99.90;;;;;;5093848;28;20266;-53
2022/02/28 09:49:16;;;;;;;24.37;14.30;;;4.30;99.90;;;;;;5092385;28;20204;-49
2022/02/28 09:52:03;;;;;;;23.73;14.30;;;4.30;99.90;;;;;;5084952;28;20567;-49
2022/02/28 09:54:49;;;;;;;25.37;14.83;;;4.30;99.90;;;;;;5094783;28;20208;-49
2022/02/28 09:57:35;;;;;;;21.10;13.90;;;4.30;99.90;;;;;;5100275;28;20250;-53
2022/02/28 10:00:29;;;;;;;23.40;14.57;;;4.40;99.90;;;;;;5083619;28;20361;-47
2022/02/28 10:02:57;;;;;;;24.47;14.03;;;4.50;99.90;;;;;;5101351;27;20205;-50
2022/02/28 10:05:24;;;;;;;23.07;14.10;;;4.60;99.90;;;;;;5090066;28;20281;-50
2022/02/28 10:07:55;;;;;;;24.57;14.43;;;4.60;99.90;;;;;;5083876;28;20193;-49
2022/02/28 10:10:22;;;;;;;21.67;12.93;;;4.70;99.90;;;;;;5094840;28;20227;-52
2022/02/28 10:12:50;;;;;;;20.93;13.67;;;4.80;99.90;;;;;;5090488;28;20209;-52
2022/02/28 10:15:18;;;;;;;23.67;14.40;;;4.80;99.90;;;;;;5099300;28;20922;-49
2022/02/28 10:17:47;;;;;;;19.90;13.30;;;4.80;99.90;;;;;;5098488;28;20278;-48
2022/02/28 10:20:16;;;;;;;22.43;13.97;;;4.90;99.90;;;;;;5078470;28;20228;-50
2022/02/28 10:22:43;;;;;;;20.10;13.00;;;5.00;99.90;;;;;;5089970;28;20212;-49
2022/02/28 10:25:26;;;;;;;22.13;14.10;;;5.00;99.90;;;;;;5089122;28;20201;-54
2022/02/28 10:28:13;;;;;;;20.90;13.03;;;5.10;99.90;;;;;;5096403;28;20198;-54
2022/02/28 10:31:04;;;;;;;19.57;13.03;;;5.10;99.90;;;;;;5089709;28;20724;-53
2022/02/28 10:33:49;;;;;;;20.17;13.10;;;5.10;99.90;;;;;;5087073;28;20212;-46
2022/02/28 10:36:35;;;;;;;20.20;13.27;;;5.20;99.90;;;;;;5098895;28;20720;-50
2022/02/28 10:39:10;;;;;;;21.60;13.93;;;5.20;99.90;;;;;;5093219;28;20217;-52
2022/02/28 10:41:40;;;;;;;22.70;14.40;;;5.20;99.90;;;;;;5092630;28;20253;-47
2022/02/28 10:44:10;;;;;;;24.60;13.53;;;5.30;99.90;;;;;;5088406;28;20194;-51
2022/02/28 10:46:42;;;;;;;18.87;12.20;;;5.30;99.90;;;;;;5082461;28;20197;-49
2022/02/28 10:49:15;;;;;;;21.63;13.67;;;5.30;99.90;;;;;;5085787;28;20216;-52
2022/02/28 10:51:45;;;;;;;18.40;11.67;;;5.40;99.90;;;;;;5085599;28;20224;-51
2022/02/28 10:54:14;;;;;;;24.03;14.13;;;5.40;99.90;;;;;;5093306;28;20205;-48
2022/02/28 10:56:48;;;;;;;20.87;12.77;;;5.40;99.90;;;;;;5087846;28;20889;-53
2022/02/28 10:59:15;;;;;;;22.07;13.00;;;5.40;99.90;;;;;;5100098;28;20296;-48
2022/02/28 11:01:42;;;;;;;16.50;11.17;;;5.50;99.90;;;;;;5082792;28;20209;-52
2022/02/28 11:04:09;;;;;;;17.53;12.87;;;5.60;99.90;;;;;;5098802;28;20193;-51
2022/02/28 11:06:37;;;;;;;19.50;12.23;;;5.60;99.90;;;;;;5075223;28;20209;-47
2022/02/28 11:09:05;;;;;;;19.13;10.93;;;5.70;99.90;;;;;;5099045;28;20195;-49
2022/02/28 11:11:32;;;;;;;17.73;11.07;;;5.80;99.90;;;;;;5082832;28;20343;-54
2022/02/28 11:14:00;;;;;;;19.83;11.63;;;5.80;99.90;;;;;;5100748;28;20209;-47
2022/02/28 11:16:29;;;;;;;20.97;11.17;;;5.80;99.90;;;;;;5076672;28;20205;-49
2022/02/28 11:18:56;;;;;;;20.97;12.17;;;5.90;99.90;;;;;;5093293;28;20276;-48
2022/02/28 11:21:23;;;;;;;20.90;12.13;;;5.90;99.90;;;;;;5077840;28;20720;-49
2022/02/28 11:23:50;;;;;;;15.47;10.17;;;6.00;99.90;;;;;;5101301;28;20197;-51
2022/02/28 11:26:18;;;;;;;18.13;12.03;;;6.00;99.90;;;;;;5092967;28;20198;-51
2022/02/28 11:28:46;;;;;;;17.43;11.80;;;6.10;99.90;;;;;;5092871;28;20189;-49
2022/02/28 11:31:16;;;;;;;16.23;11.13;;;6.20;99.90;;;;;;5088710;28;20225;-51
2022/02/28 11:33:52;;;;;;;19.37;11.40;;;6.30;99.90;;;;;;5095924;28;20832;-51
2022/02/28 11:36:19;;;;;;;17.50;10.57;;;6.30;99.90;;;;;;5090844;28;20207;-53
2022/02/28 11:38:46;;;;;;;13.97;11.00;;;6.40;99.90;;;;;;5092911;28;20924;-51
2022/02/28 11:41:16;;;;;;;18.33;11.60;;;6.40;99.90;;;;;;5098499;28;20221;-53
2022/02/28 11:43:48;;;;;;;17.43;10.50;;;6.50;99.90;;;;;;5085817;28;20341;-47
2022/02/28 11:46:18;;;;;;;19.83;11.80;;;6.60;99.90;;;;;;5089891;28;20193;-53
2022/02/28 11:48:47;;;;;;;15.47;10.50;;;6.70;99.90;;;;;;5099160;28;20202;-47
2022/02/28 11:51:26;;;;;;;17.17;11.80;;;6.70;99.90;;;;;;5091141;28;20227;-47
2022/02/28 11:53:54;;;;;;;18.47;11.33;;;6.80;99.90;;;;;;5091531;28;20301;-46
2022/02/28 11:56:55;;;;;;;13.77;10.17;;;6.90;99.90;;;;;;5070028;28;20217;-49
2022/02/28 11:59:28;;;;;;;15.17;10.70;;;7.00;99.90;;;;;;5071981;28;20225;-45
2022/02/28 12:01:59;;;;;;;15.73;9.90;;;6.90;99.90;;;;;;5071320;28;20225;-46
2022/02/28 12:04:40;;;;;;;15.87;10.10;;;6.90;99.90;;;;;;5077970;28;20220;-49
2022/02/28 12:07:23;;;;;;;16.10;9.63;;;7.00;99.90;;;;;;5052591;28;20958;-47
2022/02/28 12:09:50;;;;;;;15.77;10.47;;;7.00;99.90;;;;;;5084061;28;20212;-48
2022/02/28 12:12:20;;;;;;;14.67;10.47;;;7.00;99.90;;;;;;5072447;28;20210;-46
2022/02/28 12:15:09;;;;;;;13.93;9.33;;;7.00;99.90;;;;;;5071966;28;20642;-46
2022/02/28 12:20:31;;;;;;;17.07;10.33;;;7.20;99.90;;;;;;5105986;27;20964;-47
2022/02/28 12:23:27;;;;;;;13.90;9.23;;;7.10;99.90;;;;;;5102077;27;20230;-47
2022/02/28 12:26:10;;;;;;;14.60;9.27;;;7.10;99.90;;;;;;5114917;27;20197;-48
2022/02/28 12:28:43;;;;;;;17.37;10.67;;;7.20;99.90;;;;;;5119899;28;20192;-46
2022/02/28 12:31:11;;;;;;;12.77;9.83;;;7.20;99.90;;;;;;5103998;27;20244;-49
2022/02/28 12:34:00;;;;;;;15.80;9.87;;;7.30;99.90;;;;;;5112753;28;20206;-48
2022/02/28 12:36:30;;;;;;;14.60;10.33;;;7.30;99.90;;;;;;5109359;28;20232;-45
2022/02/28 12:39:01;;;;;;;15.43;9.90;;;7.30;99.90;;;;;;5097838;27;20269;-46
2022/02/28 12:41:30;;;;;;;15.73;10.10;;;7.40;99.90;;;;;;5106309;27;20592;-43
2022/02/28 12:44:02;;;;;;;12.13;10.07;;;7.50;99.90;;;;;;5106299;27;20193;-45
2022/02/28 12:46:31;;;;;;;13.37;9.30;;;7.50;99.90;;;;;;5105944;28;20291;-48
2022/02/28 12:48:58;;;;;;;13.50;9.37;;;7.60;99.90;;;;;;5107605;27;21197;-44
2022/02/28 12:51:27;;;;;;;15.17;9.20;;;7.60;99.90;;;;;;5105925;28;20559;-46
2022/02/28 12:54:04;;;;;;;11.87;9.20;;;7.60;99.90;;;;;;5100776;27;20250;-47